Time;durP1;ratioP1;P1;durP2;ratioP2;P2;SDS_P1;SDS_P2;PMS_P1;PMS_P2;Temp;Humidity;BMP_temperature;BMP_pressure;BME280_temperature;BME280_humidity;BME280_pressure;Samples;Min_cycle;Max_cycle;Signal;HPM_P1;HPM_P2
2022/09/02 00:01:28;;;;;;;1.70;0.70;;;15.40;73.80;;;;;;5062822;28;20028;-48
2022/09/02 00:04:04;;;;;;;2.10;0.85;;;15.40;74.10;;;;;;5046934;28;20051;-46
2022/09/02 00:06:33;;;;;;;1.67;0.82;;;15.40;74.40;;;;;;5049739;28;20037;-46
2022/09/02 00:09:03;;;;;;;2.55;1.13;;;15.40;74.60;;;;;;5032111;28;20076;-46
2022/09/02 00:11:30;;;;;;;2.25;0.82;;;15.40;74.50;;;;;;5048626;28;20071;-47
2022/09/02 00:13:57;;;;;;;3.05;0.85;;;15.40;74.80;;;;;;5058804;28;20020;-47
2022/09/02 00:16:24;;;;;;;1.20;0.75;;;15.40;74.90;;;;;;5059471;28;20032;-47
2022/09/02 00:18:51;;;;;;;2.08;1.13;;;15.40;75.00;;;;;;5057999;28;20438;-46
2022/09/02 00:21:18;;;;;;;1.70;0.98;;;15.40;75.50;;;;;;5039314;28;20029;-45
2022/09/02 00:23:44;;;;;;;2.83;0.88;;;15.40;75.70;;;;;;5058053;28;20083;-46
2022/09/02 00:26:13;;;;;;;1.55;0.70;;;15.30;75.60;;;;;;5049661;28;20032;-46
2022/09/02 00:28:40;;;;;;;1.88;0.95;;;15.30;76.10;;;;;;5051026;28;20446;-46
2022/09/02 00:31:06;;;;;;;1.85;0.90;;;15.30;76.30;;;;;;5057955;28;20040;-49
2022/09/02 00:33:31;;;;;;;2.38;0.90;;;15.30;76.40;;;;;;5036514;28;20032;-46
2022/09/02 00:35:59;;;;;;;2.05;0.70;;;15.30;76.70;;;;;;5062568;28;20435;-46
2022/09/02 00:38:28;;;;;;;2.85;1.02;;;15.30;76.90;;;;;;5051182;28;20021;-46
2022/09/02 00:40:54;;;;;;;3.28;1.13;;;15.30;77.00;;;;;;5059743;28;20059;-45
2022/09/02 00:43:42;;;;;;;1.38;0.80;;;15.30;77.10;;;;;;5070493;28;20071;-47
2022/09/02 00:46:13;;;;;;;1.80;0.90;;;15.20;77.20;;;;;;5042561;28;20510;-45
2022/09/02 00:48:45;;;;;;;1.23;0.70;;;15.30;77.50;;;;;;5052513;28;20080;-46
2022/09/02 00:51:11;;;;;;;1.52;1.00;;;15.20;77.50;;;;;;5036935;28;20472;-46
2022/09/02 00:53:39;;;;;;;2.00;0.85;;;15.20;77.80;;;;;;5075891;28;20027;-46
2022/09/02 00:56:11;;;;;;;3.25;1.27;;;15.20;77.80;;;;;;5079382;28;20086;-46
2022/09/02 00:58:37;;;;;;;2.00;0.80;;;15.20;77.80;;;;;;5053528;28;20029;-47
2022/09/02 01:01:06;;;;;;;3.90;0.80;;;15.20;77.80;;;;;;5057627;28;20087;-48
2022/09/02 01:03:32;;;;;;;2.17;0.80;;;15.20;77.90;;;;;;5061937;28;20124;-46
2022/09/02 01:06:00;;;;;;;4.15;1.02;;;15.10;78.10;;;;;;5046822;28;20056;-46
2022/09/02 01:08:33;;;;;;;1.77;0.90;;;15.10;78.20;;;;;;5034228;28;20505;-48
2022/09/02 01:11:00;;;;;;;2.17;0.82;;;15.10;78.20;;;;;;5043525;28;20044;-46
2022/09/02 01:13:29;;;;;;;1.85;0.85;;;15.10;78.40;;;;;;5051449;28;20334;-47
2022/09/02 01:16:01;;;;;;;2.57;1.13;;;15.10;78.50;;;;;;5059003;28;20028;-46
2022/09/02 01:18:31;;;;;;;1.92;0.80;;;15.00;78.10;;;;;;5051689;28;20061;-46
2022/09/02 01:20:59;;;;;;;2.53;1.30;;;14.90;78.00;;;;;;5053725;28;20652;-46
2022/09/02 01:23:27;;;;;;;2.70;0.90;;;14.90;77.80;;;;;;5053132;28;20047;-47
2022/09/02 01:25:56;;;;;;;4.00;0.93;;;14.90;78.00;;;;;;5033432;28;20025;-48
2022/09/02 01:28:22;;;;;;;3.05;1.00;;;14.90;77.80;;;;;;5063786;28;20345;-46
2022/09/02 01:30:51;;;;;;;2.80;1.33;;;14.90;78.00;;;;;;5062319;28;20021;-47
2022/09/02 01:33:20;;;;;;;4.40;1.02;;;14.90;77.90;;;;;;5033668;28;20021;-48
2022/09/02 01:35:46;;;;;;;3.00;0.90;;;14.80;78.20;;;;;;5053196;28;20025;-48
2022/09/02 01:38:12;;;;;;;1.92;1.05;;;14.70;78.30;;;;;;5043746;28;20032;-48
2022/09/02 01:40:38;;;;;;;1.80;0.77;;;14.70;78.50;;;;;;5058232;28;20032;-45
2022/09/02 01:43:15;;;;;;;2.63;1.05;;;14.60;78.30;;;;;;5060110;28;20037;-46
2022/09/02 01:45:43;;;;;;;2.70;1.10;;;14.60;78.30;;;;;;5034262;28;20033;-47
2022/09/02 01:48:10;;;;;;;3.65;1.20;;;14.60;78.30;;;;;;5050872;28;20045;-47
2022/09/02 01:50:39;;;;;;;2.03;1.00;;;14.70;78.20;;;;;;5050274;28;20032;-46
2022/09/02 01:53:05;;;;;;;2.47;1.23;;;14.60;78.20;;;;;;5069332;28;20442;-49
2022/09/02 01:55:36;;;;;;;2.58;1.30;;;14.60;78.20;;;;;;5063106;28;20083;-48
2022/09/02 01:58:02;;;;;;;3.05;1.20;;;14.60;78.10;;;;;;5051717;28;20398;-48
2022/09/02 02:00:28;;;;;;;1.80;0.90;;;14.60;78.00;;;;;;5032731;28;20025;-48
2022/09/02 02:02:54;;;;;;;2.58;1.20;;;14.60;77.90;;;;;;5070554;28;20038;-46
2022/09/02 02:05:21;;;;;;;3.63;1.20;;;14.60;77.90;;;;;;5049027;28;20091;-46
2022/09/02 02:07:47;;;;;;;3.40;0.90;;;14.50;77.80;;;;;;5040020;28;20060;-46
2022/09/02 02:10:14;;;;;;;5.15;1.10;;;14.60;77.80;;;;;;5047672;28;20051;-46
2022/09/02 02:12:40;;;;;;;2.13;0.90;;;14.50;77.70;;;;;;5050338;28;20035;-46
2022/09/02 02:15:09;;;;;;;3.60;1.10;;;14.60;77.80;;;;;;5051100;28;20029;-46
2022/09/02 02:17:40;;;;;;;2.25;0.85;;;14.60;77.90;;;;;;5055157;28;20040;-48
2022/09/02 02:20:08;;;;;;;2.25;0.85;;;14.60;77.80;;;;;;5049900;28;20044;-46
2022/09/02 02:22:34;;;;;;;2.80;1.20;;;14.60;77.80;;;;;;5036911;28;20119;-49
2022/09/02 02:25:00;;;;;;;2.85;0.88;;;14.50;77.60;;;;;;5066764;28;20025;-48
2022/09/02 02:27:28;;;;;;;2.88;1.17;;;14.40;77.90;;;;;;5070200;28;20083;-47
2022/09/02 02:29:56;;;;;;;1.80;1.05;;;14.40;78.20;;;;;;5047384;28;20470;-47
2022/09/02 02:32:21;;;;;;;6.38;1.25;;;14.40;78.30;;;;;;5046463;28;20076;-46
2022/09/02 02:34:47;;;;;;;5.18;1.20;;;14.30;78.60;;;;;;5049915;28;20023;-48
2022/09/02 02:37:14;;;;;;;2.65;1.10;;;14.30;78.80;;;;;;5065568;28;20029;-47
2022/09/02 02:39:41;;;;;;;2.20;1.08;;;14.30;78.70;;;;;;5050007;28;20395;-48
2022/09/02 02:42:08;;;;;;;2.95;1.00;;;14.20;79.00;;;;;;5033322;28;20035;-45
2022/09/02 02:44:34;;;;;;;2.50;0.90;;;14.20;79.20;;;;;;5032854;28;20063;-46
2022/09/02 02:47:00;;;;;;;4.40;1.20;;;14.20;79.10;;;;;;5056602;28;20029;-47
2022/09/02 02:49:26;;;;;;;2.72;1.10;;;14.20;79.30;;;;;;5064215;28;20465;-47
2022/09/02 02:51:56;;;;;;;3.22;1.23;;;14.20;79.30;;;;;;5051048;28;20112;-47
2022/09/02 02:54:22;;;;;;;7.00;1.73;;;14.30;79.20;;;;;;5062252;28;20445;-46
2022/09/02 02:56:48;;;;;;;6.18;1.75;;;14.20;79.20;;;;;;5049264;28;20029;-45
2022/09/02 02:59:13;;;;;;;3.85;1.25;;;14.20;79.00;;;;;;5049636;28;20060;-46
2022/09/02 03:01:39;;;;;;;2.10;1.17;;;14.20;79.20;;;;;;5060791;28;20036;-47
2022/09/02 03:04:05;;;;;;;4.05;1.00;;;14.20;79.40;;;;;;5064103;28;20036;-46
2022/09/02 03:06:31;;;;;;;2.03;0.90;;;14.20;79.20;;;;;;5057715;28;20032;-49
2022/09/02 03:09:01;;;;;;;2.67;0.93;;;14.10;79.30;;;;;;5043815;28;20038;-46
2022/09/02 03:11:29;;;;;;;2.28;1.00;;;14.10;79.30;;;;;;5038471;28;20086;-47
2022/09/02 03:13:56;;;;;;;6.30;1.00;;;14.10;79.30;;;;;;5060432;28;20508;-46
2022/09/02 03:16:22;;;;;;;3.17;0.90;;;14.10;79.40;;;;;;5057352;28;20028;-46
2022/09/02 03:18:49;;;;;;;2.63;1.15;;;14.10;79.40;;;;;;5031950;28;20357;-45
2022/09/02 03:21:15;;;;;;;5.88;0.93;;;14.10;79.50;;;;;;5057440;28;20041;-47
2022/09/02 03:23:42;;;;;;;4.22;1.27;;;14.10;79.40;;;;;;5032134;28;20037;-49
2022/09/02 03:26:14;;;;;;;3.65;1.35;;;14.00;79.60;;;;;;5058781;28;20029;-46
2022/09/02 03:28:40;;;;;;;4.43;1.08;;;14.00;79.60;;;;;;5050224;28;20107;-46
2022/09/02 03:31:06;;;;;;;2.72;1.20;;;14.00;79.50;;;;;;5040973;28;20120;-45
2022/09/02 03:33:32;;;;;;;2.72;1.00;;;14.00;79.80;;;;;;5048313;28;20028;-46
2022/09/02 03:35:58;;;;;;;3.58;1.50;;;14.00;79.60;;;;;;5049931;28;20025;-46
2022/09/02 03:38:27;;;;;;;1.98;1.20;;;13.90;79.60;;;;;;5031640;28;20024;-46
2022/09/02 03:40:52;;;;;;;2.40;1.15;;;13.90;79.70;;;;;;5060090;28;20028;-46
2022/09/02 03:43:18;;;;;;;2.22;1.20;;;13.90;80.00;;;;;;5051550;28;20422;-46
2022/09/02 03:45:46;;;;;;;2.95;1.35;;;13.90;79.90;;;;;;5053587;28;20434;-47
2022/09/02 03:48:13;;;;;;;1.77;1.00;;;13.80;80.10;;;;;;5067908;28;20130;-46
2022/09/02 03:50:42;;;;;;;2.53;1.45;;;13.80;80.40;;;;;;5032095;28;20029;-46
2022/09/02 03:53:11;;;;;;;2.67;1.50;;;13.80;80.50;;;;;;5048117;28;20025;-46
2022/09/02 03:55:40;;;;;;;2.55;1.17;;;13.70;80.60;;;;;;5055734;28;20040;-46
2022/09/02 03:58:05;;;;;;;3.35;1.38;;;13.70;80.80;;;;;;5031569;28;20103;-46
2022/09/02 04:00:33;;;;;;;4.53;1.40;;;13.60;80.90;;;;;;5054952;28;20025;-45
2022/09/02 04:03:00;;;;;;;3.47;1.30;;;13.60;81.20;;;;;;5067657;28;20469;-48
2022/09/02 04:05:27;;;;;;;2.63;1.50;;;13.60;81.30;;;;;;5050807;28;20393;-46
2022/09/02 04:07:52;;;;;;;3.20;1.10;;;13.60;81.40;;;;;;5042852;28;20427;-48
2022/09/02 04:10:20;;;;;;;1.77;1.17;;;13.50;81.60;;;;;;5063432;28;20123;-46
2022/09/02 04:12:50;;;;;;;2.83;1.27;;;13.50;81.80;;;;;;5054848;28;20048;-46
2022/09/02 04:15:16;;;;;;;1.63;1.00;;;13.50;82.30;;;;;;5035606;28;20038;-46
2022/09/02 04:17:45;;;;;;;3.10;1.15;;;13.50;82.30;;;;;;5054269;28;20037;-45
2022/09/02 04:20:12;;;;;;;4.50;1.40;;;13.60;82.60;;;;;;5052735;28;20104;-45
2022/09/02 04:22:38;;;;;;;2.67;1.33;;;13.60;82.70;;;;;;5043691;28;20035;-46
2022/09/02 04:25:05;;;;;;;5.13;1.50;;;13.60;82.70;;;;;;5059384;28;20040;-46
2022/09/02 04:27:31;;;;;;;3.03;1.35;;;13.60;82.70;;;;;;5052865;28;20108;-48
2022/09/02 04:29:57;;;;;;;3.28;1.40;;;13.60;82.60;;;;;;5036794;28;20529;-46
2022/09/02 04:32:24;;;;;;;3.90;1.77;;;13.70;82.70;;;;;;5067680;28;20024;-46
2022/09/02 04:34:50;;;;;;;4.68;1.80;;;13.70;82.50;;;;;;5050981;28;20021;-46
2022/09/02 04:37:15;;;;;;;2.55;1.60;;;13.70;82.30;;;;;;5064820;28;20024;-46
2022/09/02 04:39:41;;;;;;;3.45;1.63;;;13.70;82.30;;;;;;5063151;28;20115;-50
2022/09/02 04:42:07;;;;;;;2.85;1.15;;;13.70;82.40;;;;;;5041460;28;20449;-47
2022/09/02 04:44:32;;;;;;;5.40;1.50;;;13.70;82.30;;;;;;5070813;28;20052;-47
2022/09/02 04:47:01;;;;;;;3.03;1.10;;;13.70;82.40;;;;;;5055372;28;20161;-47
2022/09/02 04:49:30;;;;;;;2.65;1.67;;;13.70;82.50;;;;;;5041054;28;20044;-48
2022/09/02 04:51:56;;;;;;;3.47;1.80;;;13.60;82.40;;;;;;5054509;28;20036;-46
2022/09/02 04:54:24;;;;;;;2.60;1.35;;;13.70;82.50;;;;;;5052025;28;20370;-46
2022/09/02 04:56:50;;;;;;;7.13;2.40;;;13.60;82.50;;;;;;5037369;28;20032;-46
2022/09/02 04:59:16;;;;;;;4.90;1.42;;;13.70;82.40;;;;;;5034307;28;20712;-47
2022/09/02 05:01:41;;;;;;;2.78;1.20;;;13.60;82.30;;;;;;5044707;28;20028;-48
2022/09/02 05:04:08;;;;;;;3.13;1.73;;;13.60;82.50;;;;;;5071619;28;20326;-49
2022/09/02 05:06:35;;;;;;;2.30;1.38;;;13.60;82.80;;;;;;5054956;28;20037;-49
2022/09/02 05:09:07;;;;;;;4.60;1.33;;;13.60;82.70;;;;;;5026880;28;20025;-47
2022/09/02 05:11:34;;;;;;;2.78;1.27;;;13.60;82.80;;;;;;5057766;28;20061;-47
2022/09/02 05:14:03;;;;;;;3.45;1.40;;;13.60;82.90;;;;;;5058293;28;20112;-46
2022/09/02 05:16:39;;;;;;;3.30;1.30;;;13.60;83.20;;;;;;5045335;28;20032;-50
2022/09/02 05:19:10;;;;;;;4.35;1.88;;;13.60;83.10;;;;;;5066522;28;20525;-47
2022/09/02 05:21:43;;;;;;;10.65;1.73;;;13.70;83.20;;;;;;5041443;28;20252;-46
2022/09/02 05:24:11;;;;;;;3.38;1.33;;;13.70;83.10;;;;;;5046158;28;20028;-45
2022/09/02 05:26:37;;;;;;;4.50;1.30;;;13.70;83.20;;;;;;5066051;28;20048;-50
2022/09/02 05:29:10;;;;;;;4.03;1.73;;;13.80;83.20;;;;;;5068971;28;20042;-48
2022/09/02 05:31:37;;;;;;;2.42;1.33;;;13.80;83.10;;;;;;5040104;28;20531;-46
2022/09/02 05:34:03;;;;;;;3.17;1.30;;;13.90;83.00;;;;;;5065827;28;20393;-46
2022/09/02 05:36:32;;;;;;;5.32;1.65;;;13.90;83.10;;;;;;5032941;28;20029;-46
2022/09/02 05:38:59;;;;;;;3.90;1.30;;;13.90;82.80;;;;;;5055744;28;20355;-46
2022/09/02 05:41:25;;;;;;;2.85;1.30;;;13.90;82.70;;;;;;5065491;28;20037;-46
2022/09/02 05:43:53;;;;;;;3.40;1.20;;;14.00;82.50;;;;;;5067436;28;20115;-46
2022/09/02 05:46:22;;;;;;;4.93;1.60;;;14.00;82.40;;;;;;5035333;28;20068;-50
2022/09/02 05:49:06;;;;;;;5.50;1.50;;;14.10;82.30;;;;;;5040512;28;20058;-47
2022/09/02 05:51:48;;;;;;;2.08;1.02;;;14.10;82.40;;;;;;5057711;28;20028;-48
2022/09/02 05:54:24;;;;;;;5.65;1.40;;;14.20;82.40;;;;;;5066718;28;20071;-46
2022/09/02 05:56:52;;;;;;;3.85;1.10;;;14.20;82.10;;;;;;5068002;28;20016;-47
2022/09/02 05:59:19;;;;;;;3.40;1.40;;;14.30;82.30;;;;;;5059913;28;20048;-46
2022/09/02 06:01:46;;;;;;;3.38;1.60;;;14.30;82.00;;;;;;5057115;28;20045;-46
2022/09/02 06:04:16;;;;;;;5.32;1.35;;;14.40;82.00;;;;;;5059446;28;20086;-46
2022/09/02 06:06:42;;;;;;;;;;;14.40;81.80;;;;;;5043570;28;20033;-48
2022/09/02 06:09:12;;;;;;;3.78;1.10;;;14.50;81.60;;;;;;5042773;28;19943;-46
2022/09/02 06:11:45;;;;;;;3.53;1.75;;;14.50;81.60;;;;;;5058598;28;20369;-46
2022/09/02 06:14:12;;;;;;;3.40;1.35;;;14.60;81.10;;;;;;5059467;28;20029;-46
2022/09/02 06:16:39;;;;;;;2.97;1.35;;;14.60;81.10;;;;;;5055456;28;20028;-47
2022/09/02 06:19:08;;;;;;;4.63;1.50;;;14.70;81.30;;;;;;5029247;28;20025;-46
2022/09/02 06:21:38;;;;;;;2.28;1.42;;;14.70;81.20;;;;;;5057009;28;20029;-49
2022/09/02 06:24:05;;;;;;;;;;;14.90;81.70;;;;;;5060512;28;20418;-49
2022/09/02 06:26:31;;;;;;;3.47;1.30;;;14.90;81.60;;;;;;5043924;28;20253;-51
2022/09/02 06:28:59;;;;;;;4.00;1.45;;;14.90;81.40;;;;;;5061806;28;20043;-49
2022/09/02 06:31:28;;;;;;;5.70;3.25;;;15.00;81.20;;;;;;5066865;28;20047;-47
2022/09/02 06:33:55;;;;;;;3.75;1.67;;;15.10;81.00;;;;;;5058885;28;20104;-47
2022/09/02 06:36:24;;;;;;;4.75;1.83;;;15.10;81.10;;;;;;5066749;28;20043;-48
2022/09/02 06:38:51;;;;;;;4.15;1.88;;;15.20;81.40;;;;;;5048145;28;20044;-49
2022/09/02 06:41:25;;;;;;;2.65;1.35;;;15.20;81.30;;;;;;5049648;28;20037;-48
2022/09/02 06:43:51;;;;;;;4.88;1.88;;;15.20;80.60;;;;;;5050148;28;20043;-46
2022/09/02 06:46:20;;;;;;;2.47;1.33;;;15.30;80.50;;;;;;5046670;28;20035;-47
2022/09/02 06:48:49;;;;;;;2.25;1.20;;;15.30;79.70;;;;;;5047441;28;20056;-47
2022/09/02 06:51:26;;;;;;;4.43;1.80;;;15.40;79.80;;;;;;5036856;28;20044;-46
2022/09/02 06:53:52;;;;;;;2.75;1.40;;;15.40;79.70;;;;;;5049066;28;20114;-46
2022/09/02 06:56:18;;;;;;;4.80;1.30;;;15.40;79.20;;;;;;5030451;28;20065;-46
2022/09/02 06:58:46;;;;;;;4.97;1.65;;;15.40;79.70;;;;;;5068902;28;20028;-46
2022/09/02 07:01:24;;;;;;;6.50;1.63;;;15.50;79.60;;;;;;5054666;28;20025;-48
2022/09/02 07:06:36;;;;;;;3.92;1.50;;;15.50;79.10;;;;;;5065529;28;20077;-48
2022/09/02 07:09:04;;;;;;;3.50;1.75;;;15.60;79.50;;;;;;5045467;28;20182;-46
2022/09/02 07:11:30;;;;;;;6.05;1.55;;;15.60;79.30;;;;;;5062101;28;20024;-49
2022/09/02 07:14:00;;;;;;;4.90;2.40;;;15.70;79.40;;;;;;5048591;28;20029;-47
2022/09/02 07:16:33;;;;;;;3.35;1.60;;;15.70;80.20;;;;;;5051565;28;20075;-46
2022/09/02 07:19:00;;;;;;;3.00;1.73;;;15.80;80.40;;;;;;5062828;28;20119;-46
2022/09/02 07:21:30;;;;;;;3.70;2.22;;;15.80;80.60;;;;;;5052681;28;20025;-47
2022/09/02 07:23:58;;;;;;;5.15;1.67;;;15.80;79.40;;;;;;5067580;28;20043;-53
2022/09/02 07:26:26;;;;;;;2.15;1.25;;;15.90;79.60;;;;;;5049675;28;20169;-46
2022/09/02 07:28:53;;;;;;;3.17;1.60;;;15.90;80.20;;;;;;5055743;28;20027;-47
2022/09/02 07:31:22;;;;;;;5.78;1.77;;;16.10;79.50;;;;;;5060185;28;20021;-47
2022/09/02 07:33:47;;;;;;;4.57;1.77;;;16.20;79.30;;;;;;5061407;28;20412;-46
2022/09/02 07:36:14;;;;;;;7.80;2.05;;;16.40;79.10;;;;;;5054741;28;20029;-49
2022/09/02 07:38:41;;;;;;;6.97;1.63;;;16.50;77.30;;;;;;5037014;28;20139;-47
2022/09/02 07:41:09;;;;;;;5.45;2.00;;;16.70;76.40;;;;;;5060604;28;20117;-47
2022/09/02 07:43:36;;;;;;;7.57;1.73;;;17.00;75.70;;;;;;5055774;28;20064;-46
2022/09/02 07:46:03;;;;;;;7.60;1.75;;;17.40;74.60;;;;;;5054596;28;20025;-47
2022/09/02 07:48:34;;;;;;;4.25;1.40;;;17.90;72.00;;;;;;5054739;28;20052;-48
2022/09/02 07:51:03;;;;;;;2.88;1.48;;;18.20;71.20;;;;;;5059734;28;20051;-50
2022/09/02 07:53:31;;;;;;;1.95;1.08;;;18.80;69.30;;;;;;5069734;28;20036;-47
2022/09/02 07:55:57;;;;;;;6.80;1.20;;;19.20;67.80;;;;;;5038499;28;20056;-46
2022/09/02 07:58:23;;;;;;;3.60;1.50;;;19.40;65.60;;;;;;5053825;28;20039;-46
2022/09/02 08:00:50;;;;;;;2.50;1.33;;;19.60;64.60;;;;;;5057230;28;20040;-49
2022/09/02 08:03:17;;;;;;;3.75;1.08;;;19.90;64.70;;;;;;5040889;28;20094;-48
2022/09/02 08:05:45;;;;;;;2.72;1.33;;;20.20;63.10;;;;;;5065217;28;20112;-47
2022/09/02 08:08:12;;;;;;;3.63;1.20;;;20.70;62.80;;;;;;5055968;28;20033;-48
2022/09/02 08:10:39;;;;;;;3.03;1.35;;;21.10;60.70;;;;;;5063563;28;20457;-47
2022/09/02 08:13:05;;;;;;;2.97;1.30;;;21.40;59.80;;;;;;5068447;28;20052;-47
2022/09/02 08:15:32;;;;;;;2.88;1.33;;;21.50;58.50;;;;;;5063511;28;20115;-50
2022/09/02 08:18:02;;;;;;;2.47;1.35;;;21.00;59.20;;;;;;5066664;28;20032;-50
2022/09/02 08:20:29;;;;;;;2.05;1.17;;;21.30;61.40;;;;;;5066879;28;20162;-49
2022/09/02 08:22:55;;;;;;;2.55;1.00;;;21.50;60.60;;;;;;5059540;28;20029;-47
2022/09/02 08:25:21;;;;;;;5.82;1.40;;;21.70;60.20;;;;;;5063178;28;20061;-47
2022/09/02 08:27:47;;;;;;;4.05;1.48;;;22.00;59.50;;;;;;5059345;28;20055;-47
2022/09/02 08:30:12;;;;;;;2.50;1.20;;;22.10;60.30;;;;;;5037041;28;20029;-47
2022/09/02 08:32:41;;;;;;;2.67;0.95;;;22.30;60.10;;;;;;5035361;28;20025;-48
2022/09/02 08:35:09;;;;;;;3.50;1.48;;;22.70;58.70;;;;;;5052078;28;20029;-49
2022/09/02 08:37:39;;;;;;;1.88;0.80;;;22.70;58.10;;;;;;5051204;28;20033;-49
2022/09/02 08:40:11;;;;;;;2.50;1.15;;;22.80;59.80;;;;;;5054230;28;20479;-47
2022/09/02 08:42:45;;;;;;;2.17;1.08;;;22.90;58.00;;;;;;5067841;28;20034;-51
2022/09/02 08:45:24;;;;;;;3.67;1.08;;;23.20;57.10;;;;;;5063925;28;20056;-48
2022/09/02 08:47:57;;;;;;;;;;;22.90;56.70;;;;;;5052439;28;20025;-47
2022/09/02 08:50:23;;;;;;;3.22;1.10;;;22.80;57.90;;;;;;5054398;28;19916;-47
2022/09/02 08:53:11;;;;;;;3.70;1.38;;;22.70;56.20;;;;;;5051794;28;20079;-48
2022/09/02 08:55:45;;;;;;;3.58;1.50;;;22.80;57.60;;;;;;5049902;28;20822;-47
2022/09/02 08:58:16;;;;;;;3.05;0.82;;;22.90;55.90;;;;;;5063747;28;20450;-47
2022/09/02 09:00:44;;;;;;;3.03;0.70;;;22.90;55.60;;;;;;5061930;28;20328;-48
2022/09/02 09:03:50;;;;;;;5.05;1.33;;;22.90;56.70;;;;;;5064249;28;20039;-48
2022/09/02 09:06:47;;;;;;;3.15;0.90;;;22.70;54.90;;;;;;4978348;28;20352;-48
2022/09/02 09:09:37;;;;;;;4.05;1.23;;;22.70;53.90;;;;;;5060207;28;20124;-48
2022/09/02 09:12:18;;;;;;;2.72;0.98;;;22.40;55.00;;;;;;5054016;28;21227;-49
2022/09/02 09:15:01;;;;;;;2.90;0.85;;;22.60;55.70;;;;;;5046954;28;20059;-48
2022/09/02 09:17:36;;;;;;;4.88;1.45;;;22.70;55.70;;;;;;5060452;28;20496;-49
2022/09/02 09:20:21;;;;;;;2.38;1.10;;;22.50;54.90;;;;;;5057976;28;20083;-52
2022/09/02 09:22:49;;;;;;;3.58;1.05;;;22.50;55.60;;;;;;5056270;28;20028;-49
2022/09/02 09:25:17;;;;;;;3.90;1.05;;;22.80;55.10;;;;;;5039050;28;20063;-50
2022/09/02 09:27:46;;;;;;;1.55;0.90;;;22.80;54.40;;;;;;5060225;28;20072;-49
2022/09/02 09:30:17;;;;;;;3.47;1.10;;;22.80;54.10;;;;;;5041503;28;20025;-48
2022/09/02 09:32:53;;;;;;;7.68;1.45;;;22.90;54.80;;;;;;5043867;28;20028;-47
2022/09/02 09:35:18;;;;;;;5.78;1.05;;;23.10;55.00;;;;;;5059772;28;20438;-47
2022/09/02 09:37:49;;;;;;;5.43;1.02;;;23.20;56.30;;;;;;5057198;28;20029;-48
2022/09/02 09:40:19;;;;;;;2.78;1.25;;;23.50;53.80;;;;;;5035883;28;20783;-47
2022/09/02 09:42:46;;;;;;;3.42;1.20;;;23.30;55.50;;;;;;5067452;28;20040;-49
2022/09/02 09:45:20;;;;;;;6.60;1.30;;;23.30;54.40;;;;;;5053872;28;20028;-51
2022/09/02 09:48:26;;;;;;;3.47;1.00;;;23.10;54.20;;;;;;5065004;28;20094;-53
2022/09/02 09:50:55;;;;;;;3.63;1.00;;;23.00;55.20;;;;;;5066250;28;20039;-48
2022/09/02 09:53:29;;;;;;;2.80;0.95;;;23.30;54.30;;;;;;5066937;28;20035;-49
2022/09/02 09:56:05;;;;;;;2.65;1.00;;;23.60;55.00;;;;;;5045052;28;20024;-48
2022/09/02 09:58:40;;;;;;;5.22;1.10;;;23.50;53.50;;;;;;5060251;28;20056;-48
2022/09/02 10:01:13;;;;;;;4.43;1.10;;;23.40;53.40;;;;;;5063901;28;20468;-48
2022/09/02 10:03:51;;;;;;;2.45;0.82;;;23.50;54.90;;;;;;5064971;28;20024;-50
2022/09/02 10:06:30;;;;;;;2.47;1.15;;;23.90;53.40;;;;;;5059253;28;20033;-51
2022/09/02 10:08:59;;;;;;;4.70;1.40;;;24.10;54.00;;;;;;5070071;28;20035;-49
2022/09/02 10:11:30;;;;;;;3.63;1.30;;;24.30;52.20;;;;;;5066261;28;20024;-49
2022/09/02 10:14:02;;;;;;;2.58;1.13;;;24.50;50.50;;;;;;5065973;28;20040;-47
2022/09/02 10:17:02;;;;;;;6.60;1.38;;;24.20;51.70;;;;;;5056804;28;20175;-48
2022/09/02 10:19:43;;;;;;;2.97;1.45;;;23.90;51.40;;;;;;5062238;28;20066;-49
2022/09/02 10:22:48;;;;;;;3.70;1.17;;;24.00;50.30;;;;;;5060971;28;20024;-53
2022/09/02 10:25:14;;;;;;;3.10;1.20;;;23.90;51.40;;;;;;5041245;28;20036;-48
2022/09/02 10:28:23;;;;;;;3.80;1.42;;;23.90;52.30;;;;;;5061665;28;20078;-48
2022/09/02 10:31:12;;;;;;;4.72;1.67;;;23.80;50.20;;;;;;5022969;28;20048;-48
2022/09/02 10:33:44;;;;;;;5.07;1.70;;;23.90;52.20;;;;;;5056533;28;20080;-47
2022/09/02 10:36:37;;;;;;;2.40;1.40;;;23.90;49.60;;;;;;5064017;28;20036;-48
2022/09/02 10:39:18;;;;;;;3.67;1.50;;;24.00;50.20;;;;;;5048927;28;20478;-47
2022/09/02 10:41:45;;;;;;;4.53;2.00;;;24.00;50.00;;;;;;5059320;28;20100;-48
2022/09/02 10:44:49;;;;;;;2.55;1.70;;;23.90;51.00;;;;;;5050294;28;20037;-51
2022/09/02 10:47:40;;;;;;;3.38;1.70;;;24.00;52.40;;;;;;5064980;28;20428;-49
2022/09/02 10:50:34;;;;;;;6.13;1.75;;;23.90;50.00;;;;;;5047894;28;20427;-49
2022/09/02 10:53:05;;;;;;;4.63;2.22;;;24.10;52.60;;;;;;5060721;28;20111;-48
2022/09/02 10:55:57;;;;;;;3.35;1.75;;;24.10;49.70;;;;;;5059512;28;20025;-48
2022/09/02 10:58:36;;;;;;;2.65;1.58;;;23.90;52.10;;;;;;5064797;28;20032;-49
2022/09/02 11:01:05;;;;;;;4.53;1.70;;;24.00;52.10;;;;;;5059556;28;20021;-51
2022/09/02 11:03:42;;;;;;;3.70;2.13;;;24.10;50.70;;;;;;5060339;28;20047;-47
2022/09/02 11:06:19;;;;;;;6.93;1.95;;;23.90;51.30;;;;;;5057069;28;20029;-49
2022/09/02 11:08:53;;;;;;;5.15;1.65;;;23.90;51.60;;;;;;5050956;28;20063;-48
2022/09/02 11:11:21;;;;;;;4.72;2.08;;;24.10;51.30;;;;;;5032989;28;20029;-48
2022/09/02 11:14:27;;;;;;;2.67;1.40;;;24.10;51.10;;;;;;5049417;28;20017;-48
2022/09/02 11:17:13;;;;;;;3.83;1.65;;;23.70;52.70;;;;;;5045059;28;20115;-51
2022/09/02 11:20:20;;;;;;;3.13;1.33;;;23.40;53.70;;;;;;5063555;28;20036;-48
2022/09/02 11:22:56;;;;;;;6.32;1.65;;;23.30;54.70;;;;;;5062706;28;20066;-51
2022/09/02 11:25:31;;;;;;;4.90;1.65;;;23.50;53.20;;;;;;5057933;28;20032;-48
2022/09/02 11:28:32;;;;;;;3.45;1.48;;;23.50;53.40;;;;;;5052504;28;20112;-47
2022/09/02 11:31:01;;;;;;;2.95;1.08;;;23.60;51.80;;;;;;5048105;28;20032;-47
2022/09/02 11:33:51;;;;;;;2.95;1.63;;;23.70;52.70;;;;;;5047712;28;20029;-50
2022/09/02 11:36:16;;;;;;;;;;;24.00;52.30;;;;;;5058779;28;20361;-48
2022/09/02 11:39:07;;;;;;;2.40;1.08;;;23.90;50.80;;;;;;5045685;28;19909;-48
2022/09/02 11:42:13;;;;;;;3.90;1.08;;;23.70;52.10;;;;;;5049884;28;20047;-48
2022/09/02 11:44:41;;;;;;;3.00;1.10;;;23.80;52.50;;;;;;5032960;28;20028;-50
2022/09/02 11:47:28;;;;;;;3.22;0.90;;;23.60;52.80;;;;;;5068124;28;20025;-48
2022/09/02 11:50:21;;;;;;;4.82;1.42;;;23.50;52.00;;;;;;5034258;28;20052;-48
2022/09/02 11:53:11;;;;;;;3.42;1.30;;;23.40;54.10;;;;;;5050330;28;20020;-47
2022/09/02 11:55:45;;;;;;;7.65;1.27;;;23.30;50.90;;;;;;5056581;28;20032;-47
2022/09/02 11:58:11;;;;;;;3.85;0.98;;;23.00;53.20;;;;;;5053428;28;20036;-47
2022/09/02 12:01:17;;;;;;;2.80;1.10;;;23.00;51.50;;;;;;5031359;28;20454;-51
2022/09/02 12:03:50;;;;;;;2.15;0.90;;;22.90;50.50;;;;;;5047121;28;20041;-52
2022/09/02 12:06:20;;;;;;;6.30;1.00;;;23.20;53.00;;;;;;5059787;28;20461;-49
2022/09/02 12:08:47;;;;;;;4.90;1.08;;;23.30;52.30;;;;;;5048830;28;20028;-49
2022/09/02 12:11:42;;;;;;;5.18;1.40;;;23.10;51.00;;;;;;5053441;28;20070;-48
2022/09/02 12:14:28;;;;;;;2.90;0.82;;;23.10;51.90;;;;;;5045497;28;20121;-48
2022/09/02 12:17:03;;;;;;;4.22;1.00;;;23.30;52.50;;;;;;5049468;28;20025;-48
2022/09/02 12:19:41;;;;;;;2.50;1.05;;;23.30;51.20;;;;;;5036896;28;20064;-47
2022/09/02 12:22:16;;;;;;;2.95;0.80;;;23.00;51.60;;;;;;5048203;28;20029;-48
2022/09/02 12:24:55;;;;;;;4.07;0.80;;;22.90;51.80;;;;;;5053141;28;20029;-48
2022/09/02 12:27:23;;;;;;;;;;;23.10;53.70;;;;;;5066904;28;20090;-47
2022/09/02 12:29:48;;;;;;;2.28;1.30;;;23.40;51.80;;;;;;5045283;28;19917;-47
2022/09/02 12:32:51;;;;;;;2.08;0.70;;;23.40;52.00;;;;;;5069334;28;20360;-50
2022/09/02 12:35:41;;;;;;;4.57;1.00;;;23.40;52.10;;;;;;5051270;28;20029;-51
2022/09/02 12:38:10;;;;;;;6.05;0.90;;;23.60;51.10;;;;;;5066045;28;20031;-48
2022/09/02 12:40:50;;;;;;;1.90;0.80;;;23.70;50.90;;;;;;5044953;28;20040;-47
2022/09/02 12:43:24;;;;;;;;;;;23.50;50.90;;;;;;5069153;28;20031;-52
2022/09/02 12:45:56;;;;;;;2.58;1.10;;;23.20;52.10;;;;;;5059182;28;20007;-47
2022/09/02 12:48:33;;;;;;;3.08;1.00;;;23.10;51.50;;;;;;5067734;28;20124;-48
2022/09/02 12:50:59;;;;;;;2.15;0.80;;;23.30;50.70;;;;;;5061206;28;20535;-48
2022/09/02 12:53:33;;;;;;;2.28;0.82;;;23.30;52.00;;;;;;5033955;28;20113;-48
2022/09/02 12:56:09;;;;;;;3.10;1.00;;;23.40;51.10;;;;;;5055393;28;20021;-47
2022/09/02 12:58:40;;;;;;;2.63;0.90;;;23.50;52.20;;;;;;5069494;28;20028;-47
2022/09/02 13:01:12;;;;;;;1.80;0.60;;;23.60;52.80;;;;;;5055282;28;20029;-51
2022/09/02 13:04:19;;;;;;;1.70;0.60;;;23.80;52.50;;;;;;5063584;28;20092;-47
2022/09/02 13:07:04;;;;;;;4.20;0.93;;;23.80;50.20;;;;;;5060264;28;20398;-47
2022/09/02 13:09:57;;;;;;;2.10;1.20;;;23.60;49.20;;;;;;5066616;28;20082;-47
2022/09/02 13:12:38;;;;;;;7.10;1.45;;;22.90;50.00;;;;;;5033597;28;20036;-48
2022/09/02 13:15:41;;;;;;;4.90;0.95;;;22.90;51.90;;;;;;5055145;28;20028;-48